Time;durP1;ratioP1;P1;durP2;ratioP2;P2;SDS_P1;SDS_P2;PMS_P1;PMS_P2;Temp;Humidity;BMP_temperature;BMP_pressure;BME280_temperature;BME280_humidity;BME280_pressure;Samples;Min_cycle;Max_cycle;Signal;HPM_P1;HPM_P2
2024/02/23 00:02:05;;;;;;;0.47;0.10;;;5.30;99.90;;;;;;5010641;28;20037;-77
2024/02/23 00:04:31;;;;;;;1.20;0.35;;;5.30;99.90;;;;;;5011415;28;20183;-76
2024/02/23 00:06:57;;;;;;;0.60;0.10;;;5.30;99.90;;;;;;5020090;28;20404;-77
2024/02/23 00:09:24;;;;;;;0.10;0.10;;;5.30;99.90;;;;;;4979241;28;20179;-77
2024/02/23 00:11:50;;;;;;;0.50;0.05;;;5.30;99.90;;;;;;5030635;28;20048;-77
2024/02/23 00:14:18;;;;;;;0.00;0.00;;;5.30;99.90;;;;;;5017747;28;20549;-77
2024/02/23 00:16:44;;;;;;;3.22;0.80;;;5.20;99.90;;;;;;5011825;28;20044;-76
2024/02/23 00:19:10;;;;;;;0.52;0.10;;;5.20;99.90;;;;;;5031402;28;20051;-77
2024/02/23 00:21:37;;;;;;;0.32;0.28;;;5.20;99.90;;;;;;5025722;28;20310;-76
2024/02/23 00:24:03;;;;;;;0.10;0.10;;;5.20;99.90;;;;;;5029056;28;20484;-76
2024/02/23 00:26:29;;;;;;;0.20;0.15;;;5.30;99.90;;;;;;4979720;28;20072;-77
2024/02/23 00:28:56;;;;;;;2.08;0.20;;;5.20;99.90;;;;;;5027749;28;20044;-76
2024/02/23 00:31:22;;;;;;;1.45;0.40;;;5.20;99.90;;;;;;5023511;28;20052;-76
2024/02/23 00:33:48;;;;;;;5.68;0.82;;;5.30;99.90;;;;;;5021744;28;20041;-77
2024/02/23 00:36:15;;;;;;;3.97;0.90;;;5.40;99.90;;;;;;5018766;28;20044;-77
2024/02/23 00:38:40;;;;;;;0.32;0.25;;;5.30;99.90;;;;;;5009109;28;20040;-77
2024/02/23 00:41:06;;;;;;;2.40;0.73;;;5.30;99.90;;;;;;5013198;28;20131;-77
2024/02/23 00:43:41;;;;;;;0.65;0.10;;;5.30;99.90;;;;;;4993300;28;20433;-77
2024/02/23 00:46:08;;;;;;;4.50;0.45;;;5.30;99.90;;;;;;5014854;28;20041;-76
2024/02/23 00:48:34;;;;;;;3.80;0.60;;;5.30;99.90;;;;;;5026635;28;20407;-76
2024/02/23 00:51:02;;;;;;;1.98;0.82;;;5.30;99.90;;;;;;5024612;28;20045;-76
2024/02/23 00:53:30;;;;;;;0.10;0.03;;;5.30;99.90;;;;;;5009774;28;20053;-77
2024/02/23 00:55:56;;;;;;;6.40;1.05;;;5.30;99.90;;;;;;5008406;28;20056;-76
2024/02/23 00:58:22;;;;;;;1.00;0.30;;;5.20;99.90;;;;;;4993422;28;20037;-76
2024/02/23 01:00:47;;;;;;;0.80;0.28;;;5.30;99.90;;;;;;5027807;28;20049;-76
2024/02/23 01:03:14;;;;;;;5.45;0.43;;;5.20;99.90;;;;;;5034465;28;20400;-76
2024/02/23 01:05:42;;;;;;;2.72;0.32;;;5.20;99.90;;;;;;5010574;28;20100;-75
2024/02/23 01:08:08;;;;;;;1.85;0.38;;;5.30;99.90;;;;;;4992538;28;20057;-75
2024/02/23 01:10:34;;;;;;;0.75;0.10;;;5.30;99.90;;;;;;4998047;28;20098;-76
2024/02/23 01:13:00;;;;;;;0.75;0.30;;;5.20;99.90;;;;;;5030737;28;20068;-76
2024/02/23 01:15:26;;;;;;;0.15;0.10;;;5.20;99.90;;;;;;4995670;28;20585;-75
2024/02/23 01:17:52;;;;;;;4.35;0.73;;;5.30;99.90;;;;;;5038574;28;20048;-76
2024/02/23 01:20:17;;;;;;;4.78;0.55;;;5.20;99.90;;;;;;5007949;28;20053;-75
2024/02/23 01:22:43;;;;;;;0.73;0.15;;;5.20;99.90;;;;;;5000975;28;20076;-75
2024/02/23 01:25:09;;;;;;;3.10;0.50;;;5.20;99.90;;;;;;4992377;28;20064;-75
2024/02/23 01:27:35;;;;;;;3.15;0.40;;;5.20;99.90;;;;;;5028384;28;20484;-77
2024/02/23 01:30:01;;;;;;;7.32;0.63;;;5.20;99.90;;;;;;5023304;28;20145;-77
2024/02/23 01:32:27;;;;;;;1.20;0.30;;;5.10;99.90;;;;;;4999084;28;20620;-75
2024/02/23 01:34:52;;;;;;;3.50;0.43;;;5.10;99.90;;;;;;5009668;28;20346;-75
2024/02/23 01:37:18;;;;;;;4.18;0.52;;;5.10;99.90;;;;;;4986444;28;20396;-76
2024/02/23 01:39:44;;;;;;;3.65;0.40;;;5.10;99.90;;;;;;5018619;28;20400;-75
2024/02/23 01:42:10;;;;;;;0.68;0.10;;;5.00;99.90;;;;;;4998936;28;20509;-75
2024/02/23 01:44:36;;;;;;;1.85;0.50;;;5.00;99.90;;;;;;5027926;28;20335;-75
2024/02/23 01:47:02;;;;;;;0.98;0.35;;;5.00;99.90;;;;;;4977727;28;20407;-74
2024/02/23 01:49:31;;;;;;;1.63;0.40;;;5.10;99.90;;;;;;5012279;28;20048;-75
2024/02/23 01:52:04;;;;;;;6.30;0.73;;;5.10;99.90;;;;;;5007620;28;20044;-74
2024/02/23 01:54:31;;;;;;;2.30;0.28;;;5.10;99.90;;;;;;5029384;28;20119;-74
2024/02/23 01:56:58;;;;;;;4.88;0.40;;;5.00;99.90;;;;;;5013961;28;20045;-74
2024/02/23 01:59:27;;;;;;;3.22;0.70;;;5.10;99.90;;;;;;5010899;28;20596;-74
2024/02/23 02:01:53;;;;;;;2.47;0.40;;;5.00;99.90;;;;;;5021457;28;20544;-75
2024/02/23 02:04:19;;;;;;;8.30;1.27;;;5.00;99.90;;;;;;5025521;28;20110;-75
2024/02/23 02:06:47;;;;;;;5.10;0.80;;;5.00;99.90;;;;;;5023894;28;20129;-75
2024/02/23 02:09:13;;;;;;;3.97;0.75;;;4.90;99.90;;;;;;5004354;28;20045;-74
2024/02/23 02:11:48;;;;;;;5.40;1.38;;;5.00;99.90;;;;;;5011791;28;20045;-74
2024/02/23 02:14:17;;;;;;;4.53;0.63;;;5.00;99.90;;;;;;5007802;28;21277;-74
2024/02/23 02:16:46;;;;;;;2.83;0.88;;;5.00;99.90;;;;;;5008107;28;20111;-74
2024/02/23 02:19:12;;;;;;;7.70;1.10;;;5.00;99.90;;;;;;5025937;28;20080;-73
2024/02/23 02:21:39;;;;;;;3.83;0.70;;;5.00;99.90;;;;;;5029891;28;20051;-74
2024/02/23 02:24:05;;;;;;;2.03;0.57;;;5.00;99.90;;;;;;5033202;28;20490;-74
2024/02/23 02:26:31;;;;;;;1.42;0.52;;;5.00;99.90;;;;;;5022831;28;20095;-74
2024/02/23 02:28:57;;;;;;;7.30;0.88;;;5.00;99.90;;;;;;5036545;28;20050;-74
2024/02/23 02:31:23;;;;;;;2.85;0.40;;;5.00;99.90;;;;;;5009440;28;20072;-74
2024/02/23 02:33:49;;;;;;;4.45;1.00;;;5.00;99.90;;;;;;4991539;28;20164;-74
2024/02/23 02:36:14;;;;;;;3.50;0.80;;;5.00;99.90;;;;;;5016366;28;20048;-74
2024/02/23 02:38:40;;;;;;;2.58;0.70;;;5.00;99.90;;;;;;5034001;28;20052;-74
2024/02/23 02:41:06;;;;;;;6.20;1.13;;;5.00;99.90;;;;;;4994630;28;20115;-74
2024/02/23 02:43:32;;;;;;;2.97;0.60;;;5.00;99.90;;;;;;5012169;28;20041;-74
2024/02/23 02:45:58;;;;;;;5.10;0.75;;;5.10;99.90;;;;;;5008112;28;20586;-74
2024/02/23 02:48:24;;;;;;;5.53;0.85;;;5.10;99.90;;;;;;5023704;28;20052;-74
2024/02/23 02:50:51;;;;;;;7.00;0.82;;;5.00;99.90;;;;;;5038980;28;20057;-74
2024/02/23 02:53:17;;;;;;;5.07;0.52;;;5.00;99.90;;;;;;5007637;28;20060;-74
2024/02/23 02:55:44;;;;;;;3.92;0.60;;;5.00;99.90;;;;;;5036304;28;20060;-74
2024/02/23 02:58:11;;;;;;;1.35;0.50;;;5.10;99.90;;;;;;5010715;28;20506;-74
2024/02/23 03:00:37;;;;;;;3.38;0.80;;;5.00;99.90;;;;;;5028617;28;20076;-74
2024/02/23 03:03:03;;;;;;;2.08;0.68;;;5.00;99.90;;;;;;5026225;28;20084;-74
2024/02/23 03:05:28;;;;;;;5.28;1.20;;;5.00;99.90;;;;;;4992043;28;20490;-74
2024/02/23 03:07:54;;;;;;;10.30;0.90;;;5.00;99.90;;;;;;4991856;28;20080;-74
2024/02/23 03:10:20;;;;;;;3.50;0.70;;;5.10;99.90;;;;;;5025860;28;20048;-74
2024/02/23 03:12:46;;;;;;;7.03;0.60;;;5.10;99.90;;;;;;5033712;28;20037;-74
2024/02/23 03:15:12;;;;;;;5.80;0.40;;;5.10;99.90;;;;;;5029783;28;20124;-74
2024/02/23 03:17:38;;;;;;;4.50;0.60;;;5.10;99.90;;;;;;5010236;28;20447;-74
2024/02/23 03:20:08;;;;;;;3.75;1.10;;;5.20;99.90;;;;;;5034372;28;20413;-74
2024/02/23 03:22:34;;;;;;;7.97;0.90;;;5.20;99.90;;;;;;5010186;28;20049;-74
2024/02/23 03:25:07;;;;;;;12.55;1.20;;;5.20;99.90;;;;;;5027118;28;20048;-73
2024/02/23 03:27:35;;;;;;;11.82;1.50;;;5.20;99.90;;;;;;5024287;28;20105;-73
2024/02/23 03:30:02;;;;;;;7.35;1.23;;;5.20;99.90;;;;;;5006970;28;20041;-73
2024/02/23 03:32:28;;;;;;;15.18;2.03;;;5.20;99.90;;;;;;5018268;28;20204;-73
2024/02/23 03:34:54;;;;;;;11.95;1.90;;;5.20;99.90;;;;;;4991132;28;20045;-73
2024/02/23 03:37:20;;;;;;;12.23;1.98;;;5.30;99.90;;;;;;5017544;28;20048;-73
2024/02/23 03:39:48;;;;;;;4.63;0.85;;;5.30;99.90;;;;;;4981489;28;20045;-73
2024/02/23 03:42:14;;;;;;;8.50;1.33;;;5.30;99.90;;;;;;5014765;28;20506;-73
2024/02/23 03:44:41;;;;;;;8.27;1.38;;;5.40;99.90;;;;;;5035561;28;20052;-73
2024/02/23 03:47:07;;;;;;;11.45;1.42;;;5.40;99.90;;;;;;5036558;28;20543;-74
2024/02/23 03:49:33;;;;;;;10.73;1.23;;;5.40;99.90;;;;;;5040217;28;20059;-73
2024/02/23 03:51:58;;;;;;;9.43;1.30;;;5.40;99.90;;;;;;5028214;28;20036;-73
2024/02/23 03:54:24;;;;;;;11.27;1.15;;;5.40;99.90;;;;;;5028130;28;20048;-73
2024/02/23 03:56:50;;;;;;;9.95;1.65;;;5.40;99.90;;;;;;5010610;28;20335;-73
2024/02/23 03:59:16;;;;;;;14.57;1.90;;;5.40;99.90;;;;;;5037530;28;20468;-73
2024/02/23 04:01:42;;;;;;;8.15;1.48;;;5.50;99.90;;;;;;5031302;28;20071;-73
2024/02/23 04:04:07;;;;;;;14.80;1.90;;;5.50;99.90;;;;;;5030428;28;20522;-73
2024/02/23 04:06:34;;;;;;;10.02;1.45;;;5.50;99.90;;;;;;5013755;28;20053;-73
2024/02/23 04:09:00;;;;;;;5.85;1.02;;;5.50;99.90;;;;;;5013237;28;20096;-73
2024/02/23 04:11:26;;;;;;;17.25;2.40;;;5.50;99.90;;;;;;5021468;28;20451;-73
2024/02/23 04:13:51;;;;;;;1.48;0.45;;;5.50;99.90;;;;;;5009321;28;20041;-73
2024/02/23 04:16:17;;;;;;;4.15;0.57;;;5.50;99.90;;;;;;4996717;28;20107;-73
2024/02/23 04:18:43;;;;;;;10.88;0.85;;;5.50;99.90;;;;;;5018172;28;20441;-73
2024/02/23 04:21:08;;;;;;;12.63;1.40;;;5.40;99.90;;;;;;5014236;28;20079;-73
2024/02/23 04:23:34;;;;;;;5.57;1.33;;;5.40;99.90;;;;;;5009965;28;20469;-73
2024/02/23 04:26:00;;;;;;;12.15;1.00;;;5.40;99.90;;;;;;5032333;28;20045;-73
2024/02/23 04:28:30;;;;;;;6.10;0.90;;;5.40;99.90;;;;;;5013776;28;20430;-72
2024/02/23 04:30:56;;;;;;;6.13;1.15;;;5.40;99.90;;;;;;5035057;28;20411;-73
2024/02/23 04:33:22;;;;;;;9.93;1.00;;;5.40;99.90;;;;;;5017876;28;20045;-73
2024/02/23 04:35:48;;;;;;;5.68;0.95;;;5.30;99.90;;;;;;5010194;28;20132;-73
2024/02/23 04:38:14;;;;;;;2.38;0.35;;;5.30;99.90;;;;;;5039464;28;20558;-73
2024/02/23 04:40:39;;;;;;;10.23;0.90;;;5.30;99.90;;;;;;5025711;28;20094;-72
2024/02/23 04:43:05;;;;;;;9.63;1.55;;;5.20;99.90;;;;;;4984600;28;20036;-73
2024/02/23 04:45:31;;;;;;;7.40;1.33;;;5.20;99.90;;;;;;5036635;28;20055;-73
2024/02/23 04:47:57;;;;;;;12.65;1.25;;;5.20;99.90;;;;;;5057178;28;20060;-73
2024/02/23 04:50:23;;;;;;;4.63;0.65;;;5.20;99.90;;;;;;5010752;28;20045;-72
2024/02/23 04:52:50;;;;;;;7.85;0.80;;;5.20;99.90;;;;;;5026697;28;20045;-72
2024/02/23 04:55:15;;;;;;;7.22;1.05;;;5.20;99.90;;;;;;5010037;28;20133;-72
2024/02/23 04:57:41;;;;;;;2.55;0.55;;;5.20;99.90;;;;;;5010670;28;20057;-73
2024/02/23 05:00:07;;;;;;;11.23;1.25;;;5.20;99.90;;;;;;5001024;28;20090;-73
2024/02/23 05:02:35;;;;;;;4.55;1.23;;;5.10;99.90;;;;;;5033537;28;20084;-73
2024/02/23 05:05:04;;;;;;;2.58;0.70;;;5.10;99.90;;;;;;5014568;28;20071;-73
2024/02/23 05:07:34;;;;;;;14.63;1.27;;;5.10;99.90;;;;;;5034856;28;20076;-73
2024/02/23 05:10:00;;;;;;;14.60;1.13;;;5.00;99.90;;;;;;5014650;28;20123;-72
2024/02/23 05:12:26;;;;;;;14.00;1.30;;;5.00;99.90;;;;;;5025472;28;20048;-73
2024/02/23 05:14:52;;;;;;;6.18;1.25;;;5.00;99.90;;;;;;5007400;28;20056;-73
2024/02/23 05:17:17;;;;;;;8.60;1.25;;;4.90;99.90;;;;;;5003154;28;20045;-73
2024/02/23 05:19:43;;;;;;;16.50;1.70;;;4.90;99.90;;;;;;5026267;28;20365;-73
2024/02/23 05:22:09;;;;;;;10.93;1.08;;;4.90;99.90;;;;;;5013706;28;20044;-73
2024/02/23 05:24:35;;;;;;;8.73;1.65;;;4.90;99.90;;;;;;5012006;28;20586;-72
2024/02/23 05:27:03;;;;;;;3.90;0.52;;;4.90;99.90;;;;;;5024369;28;20398;-73
2024/02/23 05:29:29;;;;;;;4.03;1.00;;;4.90;99.90;;;;;;5025893;28;20033;-73
2024/02/23 05:31:55;;;;;;;3.35;0.80;;;4.90;99.90;;;;;;4994709;28;20047;-72
2024/02/23 05:34:21;;;;;;;6.50;0.82;;;4.90;99.90;;;;;;5036668;28;20102;-72
2024/02/23 05:36:47;;;;;;;7.93;1.15;;;4.80;99.90;;;;;;5020511;28;20044;-73
2024/02/23 05:39:15;;;;;;;7.00;1.35;;;4.80;99.90;;;;;;5011678;28;20045;-73
2024/02/23 05:41:44;;;;;;;8.07;0.88;;;4.90;99.90;;;;;;5033783;28;20141;-73
2024/02/23 05:44:10;;;;;;;11.13;1.25;;;4.90;99.90;;;;;;5027038;28;20420;-73
2024/02/23 05:46:36;;;;;;;8.82;0.98;;;4.90;99.90;;;;;;5038984;28;20041;-72
2024/02/23 05:49:06;;;;;;;6.22;0.80;;;4.80;99.90;;;;;;5012785;28;20063;-72
2024/02/23 05:51:32;;;;;;;13.32;0.95;;;4.90;99.90;;;;;;5025908;28;20040;-73
2024/02/23 05:53:58;;;;;;;13.55;1.80;;;4.90;99.90;;;;;;5010490;28;20098;-73
2024/02/23 05:56:24;;;;;;;7.30;1.05;;;4.80;99.90;;;;;;5011305;28;20060;-73
2024/02/23 05:58:51;;;;;;;5.78;1.02;;;4.80;99.90;;;;;;5019731;28;20438;-72
2024/02/23 06:01:18;;;;;;;6.63;1.15;;;4.80;99.90;;;;;;5016848;28;20068;-73
2024/02/23 06:03:44;;;;;;;14.07;1.40;;;4.70;99.90;;;;;;5027685;28;20044;-72
2024/02/23 06:06:10;;;;;;;5.22;0.82;;;4.70;99.90;;;;;;5007256;28;20049;-73
2024/02/23 06:08:37;;;;;;;10.68;1.58;;;4.70;99.90;;;;;;5011514;28;20515;-73
2024/02/23 06:11:03;;;;;;;6.88;1.60;;;4.70;99.90;;;;;;5023271;28;20037;-72
2024/02/23 06:13:30;;;;;;;7.07;1.45;;;4.80;99.90;;;;;;5046796;28;20036;-72
2024/02/23 06:15:56;;;;;;;1.13;0.50;;;4.80;99.90;;;;;;5015505;28;20052;-73
2024/02/23 06:18:22;;;;;;;3.97;1.30;;;4.80;99.90;;;;;;5008338;28;20052;-73
2024/02/23 06:20:49;;;;;;;11.75;1.58;;;4.80;99.90;;;;;;5021919;28;20045;-72
2024/02/23 06:23:16;;;;;;;10.52;2.35;;;4.80;99.90;;;;;;5027311;28;20468;-73
2024/02/23 06:25:42;;;;;;;4.18;1.55;;;4.90;99.90;;;;;;5026352;28;20617;-72
2024/02/23 06:28:08;;;;;;;9.27;2.40;;;4.90;99.90;;;;;;5033829;28;20188;-72
2024/02/23 06:30:33;;;;;;;2.70;1.42;;;4.90;99.90;;;;;;5026376;28;20045;-73
2024/02/23 06:32:59;;;;;;;11.23;2.88;;;4.90;99.90;;;;;;5036458;28;20519;-72
2024/02/23 06:35:25;;;;;;;4.53;2.08;;;4.90;99.90;;;;;;5022960;28;20053;-73
2024/02/23 06:37:51;;;;;;;8.70;1.52;;;5.00;99.90;;;;;;5024739;28;20306;-73
2024/02/23 06:40:18;;;;;;;8.18;2.33;;;5.00;99.90;;;;;;5013598;28;20055;-73
2024/02/23 06:42:43;;;;;;;4.88;2.08;;;5.00;99.90;;;;;;5025489;28;20491;-73
2024/02/23 06:45:10;;;;;;;4.85;1.63;;;5.00;99.90;;;;;;5001227;28;20052;-73
2024/02/23 06:47:35;;;;;;;6.00;2.70;;;4.90;99.90;;;;;;5016757;28;20041;-72
2024/02/23 06:50:03;;;;;;;14.38;2.95;;;5.00;99.90;;;;;;5042556;28;20376;-73
2024/02/23 06:52:29;;;;;;;5.65;2.10;;;5.00;99.90;;;;;;5025307;28;20129;-73
2024/02/23 06:54:54;;;;;;;9.32;2.20;;;5.00;99.90;;;;;;5030873;28;20632;-73
2024/02/23 06:57:20;;;;;;;17.63;3.10;;;5.00;99.90;;;;;;5032145;28;20798;-73
2024/02/23 06:59:46;;;;;;;6.25;2.40;;;5.10;99.90;;;;;;5030285;28;20044;-73
2024/02/23 07:02:13;;;;;;;5.15;2.20;;;5.10;99.90;;;;;;5021834;28;20448;-73
2024/02/23 07:04:39;;;;;;;4.72;1.88;;;5.10;99.90;;;;;;4992223;28;20044;-72
2024/02/23 07:07:07;;;;;;;7.80;2.95;;;5.10;99.90;;;;;;5022199;28;20045;-72
2024/02/23 07:09:34;;;;;;;14.23;3.15;;;5.10;99.90;;;;;;5019729;28;20048;-72
2024/02/23 07:12:00;;;;;;;11.10;3.13;;;5.10;99.90;;;;;;5020967;28;20310;-73
2024/02/23 07:14:26;;;;;;;9.90;2.67;;;5.10;99.90;;;;;;5006711;28;20049;-72
2024/02/23 07:16:52;;;;;;;5.60;2.67;;;5.00;99.90;;;;;;5023430;28;20436;-72
2024/02/23 07:19:19;;;;;;;15.98;3.10;;;5.00;99.90;;;;;;5024818;28;20049;-72
2024/02/23 07:21:46;;;;;;;11.57;3.25;;;5.10;99.90;;;;;;4992416;28;20484;-72
2024/02/23 07:24:12;;;;;;;11.15;2.80;;;5.10;99.90;;;;;;5012187;28;20040;-73
2024/02/23 07:26:38;;;;;;;16.30;3.88;;;5.10;99.90;;;;;;5021721;28;20590;-72
2024/02/23 07:29:04;;;;;;;6.40;2.38;;;5.10;99.90;;;;;;4980923;28;20413;-72
2024/02/23 07:31:30;;;;;;;13.27;3.20;;;5.20;99.90;;;;;;5024477;28;20114;-72
2024/02/23 07:33:55;;;;;;;16.63;4.38;;;5.20;99.90;;;;;;5023238;28;20092;-73
2024/02/23 07:36:21;;;;;;;8.43;3.10;;;5.30;99.90;;;;;;5026033;28;20562;-72
2024/02/23 07:38:47;;;;;;;7.10;2.92;;;5.20;99.90;;;;;;5022352;28;20057;-72
2024/02/23 07:41:14;;;;;;;7.88;2.53;;;5.20;99.90;;;;;;5025636;28;20051;-73
2024/02/23 07:43:40;;;;;;;6.28;1.73;;;5.30;99.90;;;;;;5023064;28;20060;-72
2024/02/23 07:46:08;;;;;;;4.38;1.70;;;5.30;99.90;;;;;;5021259;28;20041;-72
2024/02/23 07:48:35;;;;;;;5.63;2.05;;;5.30;99.90;;;;;;5012687;28;20410;-73
2024/02/23 07:51:02;;;;;;;9.85;2.42;;;5.30;99.90;;;;;;5027124;28;20037;-73
2024/02/23 07:53:28;;;;;;;16.40;3.30;;;5.30;99.90;;;;;;5006921;28;20127;-73
2024/02/23 07:55:54;;;;;;;9.13;2.00;;;5.40;99.90;;;;;;5011106;28;20128;-72
2024/02/23 07:58:21;;;;;;;3.83;2.33;;;5.40;99.90;;;;;;5022731;28;20123;-73
2024/02/23 08:00:47;;;;;;;9.02;2.80;;;5.50;99.90;;;;;;5028001;28;20045;-73
2024/02/23 08:03:13;;;;;;;16.58;3.55;;;5.50;99.90;;;;;;5015830;28;20123;-73
2024/02/23 08:05:38;;;;;;;10.45;2.78;;;5.50;99.90;;;;;;5022833;28;20072;-72
2024/02/23 08:08:06;;;;;;;5.47;1.95;;;5.60;99.90;;;;;;5020182;28;20057;-73
2024/02/23 08:10:32;;;;;;;14.55;2.50;;;5.70;99.90;;;;;;5028976;28;20041;-72
2024/02/23 08:12:59;;;;;;;8.52;2.53;;;5.70;99.90;;;;;;5043182;28;20448;-73
2024/02/23 08:15:25;;;;;;;6.40;2.53;;;5.80;99.90;;;;;;5035258;28;20106;-72
2024/02/23 08:17:50;;;;;;;9.68;2.80;;;5.80;99.90;;;;;;5028926;28;20053;-73
2024/02/23 08:20:16;;;;;;;5.72;1.33;;;5.80;99.90;;;;;;5016542;28;20463;-72
2024/02/23 08:22:42;;;;;;;18.00;3.65;;;5.80;99.90;;;;;;5032135;28;20087;-72
2024/02/23 08:25:08;;;;;;;18.52;2.63;;;5.90;99.90;;;;;;5028815;28;20342;-72
2024/02/23 08:27:34;;;;;;;2.67;1.65;;;5.90;99.90;;;;;;4983031;28;20123;-72
2024/02/23 08:30:00;;;;;;;6.97;2.40;;;6.00;99.90;;;;;;5026832;28;20094;-72
2024/02/23 08:32:25;;;;;;;6.65;1.90;;;6.00;99.90;;;;;;5027195;28;20402;-72
2024/02/23 08:34:52;;;;;;;10.80;2.45;;;6.00;99.90;;;;;;5030836;28;20045;-72
2024/02/23 08:37:19;;;;;;;5.72;1.67;;;6.00;99.90;;;;;;5012496;28;20041;-72
2024/02/23 08:39:44;;;;;;;13.65;2.17;;;6.00;99.90;;;;;;5018588;28;20052;-72
2024/02/23 08:42:10;;;;;;;8.20;1.98;;;6.00;99.90;;;;;;5023656;28;20057;-72
2024/02/23 08:44:39;;;;;;;5.45;1.42;;;6.00;99.90;;;;;;5033114;28;20915;-72
2024/02/23 08:47:04;;;;;;;5.15;1.40;;;6.10;99.90;;;;;;4978116;28;20044;-72
2024/02/23 08:49:30;;;;;;;5.90;1.80;;;6.10;99.90;;;;;;5020283;28;20056;-72
2024/02/23 08:51:58;;;;;;;5.45;1.35;;;6.10;99.90;;;;;;5030260;28;20683;-72
2024/02/23 08:54:23;;;;;;;10.00;1.40;;;6.10;99.90;;;;;;5026317;28;20095;-72
2024/02/23 08:56:50;;;;;;;5.97;0.85;;;6.10;99.90;;;;;;5034959;28;20052;-72
2024/02/23 08:59:15;;;;;;;10.73;1.50;;;6.10;99.90;;;;;;5037498;28;20061;-72
2024/02/23 09:01:41;;;;;;;10.60;1.45;;;6.10;99.90;;;;;;5012497;28;20048;-72
2024/02/23 09:04:07;;;;;;;7.85;1.38;;;6.10;99.90;;;;;;5034110;28;20403;-72
2024/02/23 09:06:33;;;;;;;9.18;1.35;;;6.10;99.90;;;;;;5034057;28;20056;-72
2024/02/23 09:08:59;;;;;;;3.78;1.27;;;6.20;99.90;;;;;;5026130;28;20402;-73
2024/02/23 09:11:24;;;;;;;3.33;1.45;;;6.20;99.90;;;;;;5025056;28;20049;-72
2024/02/23 09:13:50;;;;;;;4.75;1.13;;;6.20;99.90;;;;;;5032936;28;20416;-72
2024/02/23 09:16:16;;;;;;;7.35;1.63;;;6.20;99.90;;;;;;5023145;28;20147;-72
2024/02/23 09:18:41;;;;;;;2.95;0.60;;;6.20;99.90;;;;;;5010499;28;20048;-72
2024/02/23 09:21:07;;;;;;;13.25;2.13;;;6.20;99.90;;;;;;5011118;28;20041;-72
2024/02/23 09:23:33;;;;;;;6.82;1.38;;;6.20;99.90;;;;;;5034432;28;20044;-72
2024/02/23 09:25:59;;;;;;;5.68;1.25;;;6.20;99.90;;;;;;5024854;28;20064;-72
2024/02/23 09:28:25;;;;;;;4.18;1.33;;;6.30;99.90;;;;;;5032507;28;20041;-72
2024/02/23 09:30:51;;;;;;;3.70;1.05;;;6.30;99.90;;;;;;5015678;28;20056;-72
2024/02/23 09:33:16;;;;;;;8.93;1.17;;;6.40;99.90;;;;;;5022880;28;20103;-72
2024/02/23 09:35:42;;;;;;;7.10;0.80;;;6.50;99.90;;;;;;5009011;28;20110;-72
2024/02/23 09:38:08;;;;;;;5.75;1.98;;;6.60;99.90;;;;;;5021613;28;20048;-72
2024/02/23 09:40:34;;;;;;;6.25;1.52;;;6.60;99.90;;;;;;5026218;28;20814;-71
2024/02/23 09:42:59;;;;;;;7.93;1.88;;;6.70;99.90;;;;;;5033935;28;20044;-72
2024/02/23 09:45:29;;;;;;;11.68;1.17;;;6.70;99.90;;;;;;5001499;28;20454;-72
2024/02/23 09:47:57;;;;;;;9.65;1.63;;;6.80;99.90;;;;;;5023617;28;20582;-72
2024/02/23 09:50:24;;;;;;;9.57;1.33;;;6.90;99.90;;;;;;5027784;28;20036;-72
2024/02/23 09:52:50;;;;;;;9.80;1.60;;;6.90;99.90;;;;;;5029824;28;20049;-72
2024/02/23 09:55:18;;;;;;;7.07;1.70;;;7.00;99.90;;;;;;5023332;28;20080;-71
2024/02/23 09:57:46;;;;;;;5.68;1.17;;;7.00;99.90;;;;;;5032737;28;20068;-72
2024/02/23 10:00:12;;;;;;;8.30;1.38;;;7.10;99.90;;;;;;5029866;28;20041;-71
2024/02/23 10:02:40;;;;;;;9.93;0.88;;;7.10;99.90;;;;;;5028200;28;20421;-72
2024/02/23 10:05:08;;;;;;;13.93;1.70;;;7.10;99.90;;;;;;5027893;28;20503;-72
2024/02/23 10:07:34;;;;;;;3.30;1.00;;;7.10;99.90;;;;;;5034098;28;20061;-72
2024/02/23 10:10:01;;;;;;;4.32;0.52;;;7.10;99.90;;;;;;5026017;28;20060;-71
2024/02/23 10:12:27;;;;;;;7.82;1.38;;;7.10;99.90;;;;;;5035446;28;20233;-72
2024/02/23 10:14:53;;;;;;;3.63;0.93;;;7.10;99.90;;;;;;5025010;28;20470;-71
2024/02/23 10:17:20;;;;;;;8.35;0.73;;;7.10;99.90;;;;;;5018161;28;20084;-71
2024/02/23 10:19:47;;;;;;;6.57;1.23;;;7.10;99.90;;;;;;5033234;28;20043;-72
2024/02/23 10:22:13;;;;;;;6.25;0.90;;;7.10;99.90;;;;;;5031158;28;20572;-71
2024/02/23 10:24:39;;;;;;;7.47;1.15;;;7.10;99.90;;;;;;5030642;28;20083;-71
2024/02/23 10:27:04;;;;;;;6.00;0.73;;;7.20;99.90;;;;;;5025982;28;20330;-71
2024/02/23 10:29:30;;;;;;;6.50;0.80;;;7.20;99.90;;;;;;4999786;28;20055;-72
2024/02/23 10:31:58;;;;;;;4.72;0.82;;;7.20;99.90;;;;;;5025041;28;20047;-71
2024/02/23 10:34:24;;;;;;;2.72;0.63;;;7.30;99.90;;;;;;5035737;28;20058;-71
2024/02/23 10:36:51;;;;;;;14.95;1.23;;;7.30;99.90;;;;;;5025976;28;20094;-71
2024/02/23 10:39:21;;;;;;;4.65;1.02;;;7.30;99.90;;;;;;5036223;28;20398;-71
2024/02/23 10:41:54;;;;;;;8.00;0.97;;;7.30;99.90;;;;;;5034947;28;20044;-72
2024/02/23 10:44:20;;;;;;;6.05;0.82;;;7.40;99.90;;;;;;5024643;28;20335;-71
2024/02/23 10:46:47;;;;;;;2.50;0.85;;;7.40;99.90;;;;;;5023381;28;20040;-71
2024/02/23 10:49:16;;;;;;;5.45;0.75;;;7.30;99.90;;;;;;5018644;28;20137;-71
2024/02/23 10:51:43;;;;;;;3.38;0.70;;;7.40;99.90;;;;;;5023628;28;20471;-71
2024/02/23 10:54:10;;;;;;;8.85;1.05;;;7.30;99.90;;;;;;5023133;28;20078;-71
2024/02/23 10:56:36;;;;;;;3.92;0.85;;;7.30;99.90;;;;;;5008970;28;20089;-71
2024/02/23 10:59:02;;;;;;;6.63;0.70;;;7.20;99.90;;;;;;5033499;28;20044;-71
2024/02/23 11:01:29;;;;;;;6.22;0.98;;;7.20;99.90;;;;;;5004844;28;20049;-71
2024/02/23 11:04:01;;;;;;;10.15;0.90;;;7.30;99.90;;;;;;4998343;28;20330;-71
2024/02/23 11:06:28;;;;;;;3.00;0.75;;;7.30;99.90;;;;;;5052323;28;20056;-71
2024/02/23 11:09:05;;;;;;;7.00;1.27;;;7.20;99.90;;;;;;5021749;28;20386;-71
2024/02/23 11:11:32;;;;;;;11.13;1.20;;;7.20;99.90;;;;;;5027667;28;20096;-71
2024/02/23 11:14:03;;;;;;;12.82;1.17;;;7.30;99.90;;;;;;5029060;28;20067;-70
2024/02/23 11:16:31;;;;;;;8.95;1.08;;;7.20;99.90;;;;;;4981688;28;20120;-71
2024/02/23 11:19:11;;;;;;;7.43;1.13;;;7.20;99.90;;;;;;5022017;28;20076;-71
2024/02/23 11:21:38;;;;;;;8.38;1.25;;;7.20;99.90;;;;;;5004927;28;20384;-71
2024/02/23 11:24:07;;;;;;;7.03;1.10;;;7.20;99.90;;;;;;5015521;28;20158;-72
2024/02/23 11:26:35;;;;;;;5.63;0.70;;;7.20;99.90;;;;;;5029602;28;20037;-71
2024/02/23 11:29:11;;;;;;;7.13;0.93;;;7.20;99.90;;;;;;5021164;28;20060;-71
2024/02/23 11:31:45;;;;;;;4.30;0.88;;;7.10;99.90;;;;;;5006718;28;20064;-71
2024/02/23 11:34:11;;;;;;;1.27;0.30;;;7.00;99.90;;;;;;5022308;28;20550;-71
2024/02/23 11:36:38;;;;;;;6.82;1.10;;;7.00;99.90;;;;;;5020646;28;20132;-71
2024/02/23 11:39:05;;;;;;;8.13;0.80;;;6.90;99.90;;;;;;5037238;28;20032;-70
2024/02/23 11:41:31;;;;;;;6.45;1.20;;;6.90;99.90;;;;;;5030167;28;20049;-71
2024/02/23 11:44:00;;;;;;;2.97;0.80;;;6.90;99.90;;;;;;4996281;28;20046;-72
2024/02/23 11:46:26;;;;;;;0.77;0.30;;;6.90;99.90;;;;;;5025654;28;20049;-71
2024/02/23 11:48:54;;;;;;;5.72;0.85;;;6.90;99.90;;;;;;5005592;28;20041;-71
2024/02/23 11:51:21;;;;;;;6.40;0.65;;;6.90;99.90;;;;;;5018434;28;20087;-71
2024/02/23 11:53:48;;;;;;;7.15;0.70;;;6.90;99.90;;;;;;5005817;28;20084;-71
2024/02/23 11:56:13;;;;;;;2.67;0.45;;;6.90;99.90;;;;;;5022741;28;20041;-71
2024/02/23 11:58:43;;;;;;;11.43;0.85;;;6.90;99.90;;;;;;5029038;28;20068;-72
2024/02/23 12:01:08;;;;;;;7.80;0.77;;;6.90;99.90;;;;;;5015964;28;20059;-71
2024/02/23 12:03:35;;;;;;;0.90;0.40;;;6.90;99.90;;;;;;5027205;28;20053;-71
2024/02/23 12:06:01;;;;;;;3.00;0.43;;;6.80;99.90;;;;;;5026327;28;20048;-72
2024/02/23 12:08:30;;;;;;;5.55;0.80;;;6.80;99.90;;;;;;5029100;28;20069;-71
2024/02/23 12:10:56;;;;;;;3.30;0.93;;;6.90;99.90;;;;;;5025960;28;20098;-71
2024/02/23 12:13:22;;;;;;;7.18;1.02;;;6.90;99.90;;;;;;5026982;28;20460;-71
2024/02/23 12:15:52;;;;;;;3.42;0.65;;;7.00;99.90;;;;;;5030334;28;20131;-71
2024/02/23 12:18:23;;;;;;;5.28;0.77;;;7.00;99.90;;;;;;5018999;28;20041;-71
2024/02/23 12:20:49;;;;;;;12.20;1.63;;;7.00;99.90;;;;;;5027882;28;20063;-71
2024/02/23 12:23:15;;;;;;;3.30;0.25;;;7.00;99.90;;;;;;4989088;28;20132;-71
2024/02/23 12:25:52;;;;;;;8.43;1.30;;;7.00;99.90;;;;;;5036555;28;20040;-72
2024/02/23 12:28:21;;;;;;;5.25;0.80;;;7.00;99.90;;;;;;5019157;28;20049;-71
2024/02/23 12:30:57;;;;;;;3.20;0.90;;;7.00;99.90;;;;;;5030517;28;20059;-71
2024/02/23 12:33:22;;;;;;;1.73;0.60;;;6.90;99.90;;;;;;5026692;28;20732;-71
2024/02/23 12:35:48;;;;;;;3.53;0.63;;;6.90;99.90;;;;;;5019236;28;20079;-71
2024/02/23 12:38:14;;;;;;;5.60;0.80;;;6.90;99.90;;;;;;5013286;28;20041;-71
2024/02/23 12:40:40;;;;;;;3.78;0.63;;;6.90;99.90;;;;;;5026173;28;20052;-71
2024/02/23 12:43:05;;;;;;;2.90;0.82;;;6.90;99.90;;;;;;5025741;28;20445;-71
2024/02/23 12:45:31;;;;;;;7.32;0.98;;;6.90;99.90;;;;;;5026396;28;20122;-71
2024/02/23 12:47:57;;;;;;;5.38;0.60;;;6.90;99.90;;;;;;5032224;28;20468;-71
2024/02/23 12:50:22;;;;;;;4.22;0.75;;;6.90;99.90;;;;;;5026774;28;20053;-70
2024/02/23 12:52:48;;;;;;;3.92;0.70;;;6.90;99.90;;;;;;5030664;28;20049;-70